createdAt,value
2023-02-14T00:01:21.483Z,216.63
2023-02-14T00:03:35.218Z,182.00
2023-02-14T00:05:45.901Z,337.57
2023-02-14T00:07:48.681Z,279.60
2023-02-14T00:09:51.395Z,117.60
2023-02-14T00:11:55.461Z,119.80
2023-02-14T00:14:16.442Z,65.67
2023-02-14T00:16:19.194Z,49.47
2023-02-14T00:18:22.219Z,46.40
2023-02-14T00:20:37.225Z,15.47
2023-02-14T00:22:39.884Z,12.33
2023-02-14T00:24:42.625Z,11.97
2023-02-14T00:26:45.765Z,11.60
2023-02-14T00:28:49.892Z,10.37
2023-02-14T00:30:52.641Z,11.63
2023-02-14T00:32:55.372Z,9.43
2023-02-14T00:34:58.316Z,7.60
2023-02-14T00:37:01.055Z,11.23
2023-02-14T00:39:04.281Z,11.10
2023-02-14T00:41:07.018Z,10.70
2023-02-14T00:43:09.720Z,12.00
2023-02-14T00:45:13.857Z,10.67
2023-02-14T00:47:16.749Z,12.27
2023-02-14T00:49:22.095Z,12.20
2023-02-14T00:51:25.150Z,11.00
2023-02-14T00:53:27.916Z,11.03
2023-02-14T00:55:30.654Z,9.63
2023-02-14T00:57:33.377Z,11.70
2023-02-14T00:59:36.135Z,12.63
2023-02-14T01:01:40.375Z,10.47
2023-02-14T01:03:43.234Z,11.77
2023-02-14T01:05:46.037Z,11.67
2023-02-14T01:07:48.840Z,12.63
2023-02-14T01:09:51.535Z,10.83
2023-02-14T01:11:54.596Z,11.07
2023-02-14T01:13:59.017Z,12.97
2023-02-14T01:16:07.535Z,14.47
2023-02-14T01:18:11.697Z,9.53
2023-02-14T01:20:15.195Z,14.47
2023-02-14T01:22:17.856Z,10.50
2023-02-14T01:24:20.624Z,10.23
2023-02-14T01:26:23.848Z,10.47
2023-02-14T01:28:26.520Z,11.13
2023-02-14T01:30:29.323Z,9.87
2023-02-14T01:32:32.655Z,10.77
2023-02-14T01:34:36.764Z,9.90
2023-02-14T01:36:40.984Z,9.47
2023-02-14T01:38:43.762Z,9.90
2023-02-14T01:40:46.499Z,8.53
2023-02-14T01:42:49.219Z,9.63
2023-02-14T01:45:06.534Z,9.83
2023-02-14T01:47:11.281Z,11.60
2023-02-14T01:49:18.385Z,11.73
2023-02-14T01:51:23.070Z,11.13
2023-02-14T01:53:29.707Z,10.27
2023-02-14T01:55:37.244Z,10.67
2023-02-14T01:57:43.353Z,9.73
2023-02-14T01:59:54.173Z,9.73
2023-02-14T02:01:56.142Z,11.83
2023-02-14T02:04:03.745Z,11.53
2023-02-14T02:06:12.112Z,10.47
2023-02-14T02:08:16.703Z,11.03
2023-02-14T02:10:19.738Z,9.47
2023-02-14T02:12:23.072Z,10.40
2023-02-14T02:14:25.770Z,10.10
2023-02-14T02:16:56.223Z,10.20
2023-02-14T02:19:18.800Z,10.77
2023-02-14T02:21:51.615Z,9.93
2023-02-14T02:24:20.589Z,10.73
2023-02-14T02:26:59.497Z,10.80
2023-02-14T02:29:21.613Z,11.83
2023-02-14T02:31:45.353Z,12.00
2023-02-14T02:34:24.108Z,10.37
2023-02-14T02:36:42.606Z,11.23
2023-02-14T02:39:05.212Z,11.40
2023-02-14T02:41:16.205Z,10.30
2023-02-14T02:43:33.943Z,10.63
2023-02-14T02:45:59.084Z,11.10
2023-02-14T02:48:10.775Z,10.60
2023-02-14T02:50:41.254Z,13.23
2023-02-14T02:53:05.421Z,44.77
2023-02-14T02:55:12.759Z,54.03
2023-02-14T02:57:27.777Z,95.57
2023-02-14T02:59:32.747Z,86.60
2023-02-14T03:01:38.604Z,86.33
2023-02-14T03:04:01.153Z,81.73
2023-02-14T03:06:04.119Z,85.47
2023-02-14T03:08:08.211Z,93.97
2023-02-14T03:10:14.333Z,51.73
2023-02-14T03:12:42.860Z,52.40
2023-02-14T03:14:51.836Z,58.80
2023-02-14T03:17:05.700Z,65.57
2023-02-14T03:19:36.725Z,86.73
2023-02-14T03:21:45.378Z,57.47
2023-02-14T03:23:57.251Z,56.20
2023-02-14T03:26:09.192Z,44.03
2023-02-14T03:28:16.637Z,41.73
2023-02-14T03:30:25.908Z,37.00
2023-02-14T03:32:35.646Z,48.70
2023-02-14T03:34:46.631Z,69.80
2023-02-14T03:36:53.532Z,27.10
2023-02-14T03:39:05.001Z,36.87
2023-02-14T03:41:12.885Z,36.60
2023-02-14T03:43:19.666Z,53.70
2023-02-14T03:45:27.659Z,45.73
2023-02-14T03:47:33.988Z,37.20
2023-02-14T03:49:40.860Z,159.97
2023-02-14T03:51:47.117Z,92.87
2023-02-14T03:53:54.102Z,122.03
2023-02-14T03:56:04.670Z,86.57
2023-02-14T03:58:11.793Z,73.03
2023-02-14T04:00:18.222Z,40.43
2023-02-14T04:02:25.541Z,46.37
2023-02-14T04:04:32.010Z,43.73
2023-02-14T04:06:34.744Z,74.03
2023-02-14T04:08:37.552Z,79.77
2023-02-14T04:10:43.160Z,75.43
2023-02-14T04:12:47.577Z,111.03
2023-02-14T04:14:50.350Z,82.63
2023-02-14T04:17:10.885Z,48.27
2023-02-14T04:19:30.603Z,70.30
2023-02-14T04:21:33.704Z,123.70
2023-02-14T04:23:36.433Z,111.77
2023-02-14T04:25:39.983Z,118.90
2023-02-14T04:27:42.932Z,188.93
2023-02-14T04:29:49.417Z,84.50
2023-02-14T04:31:52.285Z,110.20
2023-02-14T04:33:55.026Z,80.57
2023-02-14T04:35:57.796Z,159.83
2023-02-14T04:38:01.320Z,119.70
2023-02-14T04:40:04.068Z,216.63
2023-02-14T04:42:07.864Z,192.67
2023-02-14T04:44:10.610Z,122.57
2023-02-14T04:46:14.753Z,127.23
2023-02-14T04:48:17.528Z,215.00
2023-02-14T04:50:20.414Z,170.93
2023-02-14T04:52:23.100Z,164.27
2023-02-14T04:54:26.144Z,115.10
2023-02-14T04:56:28.858Z,377.17
2023-02-14T04:58:31.528Z,155.60
2023-02-14T05:00:34.331Z,119.53
2023-02-14T05:02:38.705Z,165.77
2023-02-14T05:04:41.474Z,166.90
2023-02-14T05:06:44.464Z,189.00
2023-02-14T05:08:47.305Z,187.97
2023-02-14T05:10:50.025Z,166.83
2023-02-14T05:12:52.734Z,123.33
2023-02-14T05:14:56.061Z,185.20
2023-02-14T05:16:58.780Z,86.97
2023-02-14T05:19:02.819Z,192.17
2023-02-14T05:21:05.972Z,109.83
2023-02-14T05:23:13.520Z,85.57
2023-02-14T05:25:16.296Z,183.60
2023-02-14T05:27:19.069Z,174.97
2023-02-14T05:29:21.801Z,122.87
2023-02-14T05:31:24.588Z,114.10
2023-02-14T05:33:27.804Z,221.63
2023-02-14T05:35:32.971Z,123.33
2023-02-14T05:37:35.737Z,123.73
2023-02-14T05:39:38.442Z,143.20
2023-02-14T05:41:41.232Z,114.80
2023-02-14T05:43:43.929Z,106.77
2023-02-14T05:45:46.634Z,100.87
2023-02-14T05:47:50.316Z,76.70
2023-02-14T05:49:53.009Z,43.67
2023-02-14T05:51:57.035Z,31.13
2023-02-14T05:54:00.008Z,41.93
2023-02-14T05:56:03.284Z,36.00
2023-02-14T05:58:06.299Z,22.07
2023-02-14T06:00:10.840Z,28.53
2023-02-14T06:02:14.153Z,29.27
2023-02-14T06:04:16.915Z,43.87
2023-02-14T06:06:19.652Z,16.57
2023-02-14T06:08:23.963Z,26.30
2023-02-14T06:10:27.201Z,27.50
2023-02-14T06:12:29.922Z,39.20
2023-02-14T06:14:32.617Z,36.80
2023-02-14T06:16:35.440Z,18.77
2023-02-14T06:18:38.194Z,20.63
2023-02-14T06:20:40.890Z,25.63
2023-02-14T06:22:43.645Z,14.20
2023-02-14T06:24:47.653Z,11.23
2023-02-14T06:26:50.345Z,15.33
2023-02-14T06:28:54.263Z,17.30
2023-02-14T06:30:57.141Z,10.17
2023-02-14T06:32:59.924Z,14.80
2023-02-14T06:35:03.462Z,11.53
2023-02-14T06:37:06.205Z,13.00
2023-02-14T06:39:08.916Z,35.60
2023-02-14T06:41:14.882Z,28.13
2023-02-14T06:43:17.612Z,34.53
2023-02-14T06:45:20.411Z,19.60
2023-02-14T06:47:23.230Z,17.93
2023-02-14T06:49:25.985Z,23.10
2023-02-14T06:51:28.744Z,25.50
2023-02-14T06:53:31.510Z,19.13
2023-02-14T06:55:34.226Z,16.87
2023-02-14T06:57:39.246Z,34.53
2023-02-14T06:59:41.926Z,14.80
2023-02-14T07:01:44.841Z,25.90
2023-02-14T07:03:47.613Z,14.30
2023-02-14T07:05:50.347Z,20.00
2023-02-14T07:07:53.151Z,14.10
2023-02-14T07:09:55.854Z,9.50
2023-02-14T07:11:58.570Z,13.73
2023-02-14T07:14:02.869Z,9.57
2023-02-14T07:16:06.027Z,11.23
2023-02-14T07:18:10.591Z,9.23
2023-02-14T07:20:15.582Z,10.47
2023-02-14T07:22:18.285Z,9.03
2023-02-14T07:24:21.016Z,10.83
2023-02-14T07:26:23.732Z,9.37
2023-02-14T07:28:26.418Z,9.70
2023-02-14T07:30:30.584Z,10.53
2023-02-14T07:32:33.417Z,11.43
2023-02-14T07:34:36.119Z,9.73
2023-02-14T07:36:39.352Z,12.13
2023-02-14T07:38:42.080Z,15.53
2023-02-14T07:40:44.752Z,12.77
2023-02-14T07:42:54.047Z,12.70
2023-02-14T07:44:56.766Z,18.80
2023-02-14T07:47:00.788Z,11.50
2023-02-14T07:49:03.472Z,12.17
2023-02-14T07:51:06.417Z,12.03
2023-02-14T07:53:09.322Z,11.10
2023-02-14T07:55:12.601Z,10.77
2023-02-14T07:57:16.072Z,11.27
2023-02-14T07:59:18.801Z,11.23
2023-02-14T08:01:21.873Z,10.77
2023-02-14T08:03:26.024Z,11.53
2023-02-14T08:05:28.794Z,12.70
2023-02-14T08:07:31.577Z,9.47
2023-02-14T08:09:34.485Z,10.07
2023-02-14T08:11:55.167Z,9.03
2023-02-14T08:13:57.865Z,11.23
2023-02-14T08:16:06.670Z,9.03
2023-02-14T08:18:09.711Z,9.87
2023-02-14T08:20:14.348Z,8.50
2023-02-14T08:22:18.245Z,8.77
2023-02-14T08:24:20.990Z,8.07
2023-02-14T08:26:23.869Z,9.07
2023-02-14T08:28:27.579Z,8.83
2023-02-14T08:30:30.558Z,9.20
2023-02-14T08:32:33.376Z,9.10
2023-02-14T08:34:36.129Z,9.40
2023-02-14T08:36:40.625Z,9.37
2023-02-14T08:38:45.060Z,11.50
2023-02-14T08:40:47.997Z,11.57
2023-02-14T08:42:50.729Z,10.87
2023-02-14T08:44:53.607Z,12.10
2023-02-14T08:46:56.353Z,11.37
2023-02-14T08:48:59.398Z,12.13
2023-02-14T08:51:06.145Z,13.70
2023-02-14T08:53:12.446Z,13.10
2023-02-14T08:55:15.306Z,12.03
2023-02-14T08:57:18.237Z,12.03
2023-02-14T08:59:20.965Z,14.33
2023-02-14T09:01:23.876Z,13.87
2023-02-14T09:03:26.761Z,15.93
2023-02-14T09:05:29.517Z,14.97
2023-02-14T09:07:34.432Z,12.30
2023-02-14T09:09:38.561Z,15.20
2023-02-14T09:11:44.452Z,9.73
2023-02-14T09:13:48.225Z,12.43
2023-02-14T09:15:52.573Z,11.37
2023-02-14T09:17:55.266Z,10.77
2023-02-14T09:19:58.004Z,10.60
2023-02-14T09:22:00.887Z,10.33
2023-02-14T09:24:03.670Z,10.00
2023-02-14T09:26:09.472Z,9.83
2023-02-14T09:28:12.203Z,9.57
2023-02-14T09:30:16.131Z,13.43
2023-02-14T09:32:21.334Z,12.60
2023-02-14T09:34:41.701Z,12.17
2023-02-14T09:37:02.313Z,13.80
2023-02-14T09:39:05.427Z,13.60
2023-02-14T09:41:11.305Z,11.60
2023-02-14T09:43:20.796Z,14.43
2023-02-14T09:45:25.980Z,23.30
2023-02-14T09:47:36.476Z,17.53
2023-02-14T09:49:40.897Z,15.10
2023-02-14T09:51:48.935Z,17.30
2023-02-14T09:53:55.078Z,15.10
2023-02-14T09:56:05.202Z,15.93
2023-02-14T09:58:17.510Z,16.63
2023-02-14T10:00:26.439Z,16.50
2023-02-14T10:02:40.267Z,15.60
2023-02-14T10:04:49.857Z,16.23
2023-02-14T10:06:57.948Z,14.80
2023-02-14T10:09:09.396Z,16.80
2023-02-14T10:11:16.510Z,15.97
2023-02-14T10:13:34.330Z,15.70
2023-02-14T10:15:41.496Z,15.80
2023-02-14T10:17:48.584Z,17.70
2023-02-14T10:19:57.343Z,15.70
2023-02-14T10:22:05.367Z,15.93
2023-02-14T10:24:16.917Z,16.87
2023-02-14T10:26:25.880Z,15.50
2023-02-14T10:28:34.535Z,18.63
2023-02-14T10:30:40.252Z,14.67
2023-02-14T10:32:57.451Z,18.53
2023-02-14T10:35:06.294Z,15.37
2023-02-14T10:37:27.923Z,13.57
2023-02-14T10:39:54.920Z,14.80
2023-02-14T10:42:06.347Z,16.27
2023-02-14T10:44:31.398Z,15.43
2023-02-14T10:46:41.806Z,14.60
2023-02-14T10:48:53.613Z,15.97
2023-02-14T10:51:04.715Z,13.60
2023-02-14T10:53:18.936Z,13.77
2023-02-14T10:55:32.516Z,14.47
2023-02-14T10:57:39.148Z,14.10
2023-02-14T10:59:50.628Z,11.93
2023-02-14T11:01:55.864Z,13.30
2023-02-14T11:04:04.057Z,14.07
2023-02-14T11:06:07.908Z,19.00
2023-02-14T11:08:20.448Z,14.97
2023-02-14T11:10:29.716Z,15.20
2023-02-14T11:12:34.209Z,14.43
2023-02-14T11:14:38.621Z,11.53
2023-02-14T11:16:42.674Z,13.93
2023-02-14T11:18:45.548Z,14.23
2023-02-14T11:21:01.455Z,13.57
2023-02-14T11:23:19.969Z,12.10
2023-02-14T11:25:24.757Z,15.40
2023-02-14T11:27:27.543Z,13.67
2023-02-14T11:29:32.810Z,12.63
2023-02-14T11:31:37.732Z,14.77
2023-02-14T11:33:55.119Z,12.33
2023-02-14T11:35:58.610Z,13.37
2023-02-14T11:38:03.705Z,12.80
2023-02-14T11:40:08.061Z,12.60
2023-02-14T11:42:13.555Z,13.83
2023-02-14T11:44:22.530Z,14.23
2023-02-14T11:46:30.498Z,12.87
2023-02-14T11:48:38.822Z,13.60
2023-02-14T11:50:45.330Z,11.97
2023-02-14T11:52:52.671Z,16.13
2023-02-14T11:54:55.875Z,12.37
2023-02-14T11:57:04.722Z,11.90
2023-02-14T11:59:07.649Z,11.57
2023-02-14T12:01:13.826Z,14.37
2023-02-14T12:03:20.283Z,14.10
2023-02-14T12:05:28.793Z,14.70
2023-02-14T12:07:36.694Z,11.23
2023-02-14T12:09:41.397Z,11.17
2023-02-14T12:11:55.649Z,14.53
2023-02-14T12:13:59.071Z,12.53
2023-02-14T12:16:07.971Z,16.17
2023-02-14T12:18:41.865Z,11.47
2023-02-14T12:20:50.425Z,9.17
2023-02-14T12:23:00.450Z,9.37
2023-02-14T12:25:10.904Z,9.50
2023-02-14T12:27:22.472Z,8.73
2023-02-14T12:29:30.366Z,8.20
2023-02-14T12:31:33.234Z,9.17
2023-02-14T12:33:37.196Z,8.43
2023-02-14T12:35:48.158Z,10.17
2023-02-14T12:38:04.961Z,8.77
2023-02-14T12:40:13.320Z,8.67
2023-02-14T12:42:32.864Z,9.03
2023-02-14T12:44:42.497Z,8.87
2023-02-14T12:47:02.472Z,8.77
2023-02-14T12:49:24.299Z,8.77
2023-02-14T12:51:30.983Z,9.80
2023-02-14T12:53:49.178Z,9.87
2023-02-14T12:56:02.207Z,8.27
2023-02-14T12:58:19.902Z,7.93
2023-02-14T13:00:35.513Z,10.33
2023-02-14T13:02:59.088Z,11.30
2023-02-14T13:05:07.668Z,8.83
2023-02-14T13:07:20.936Z,11.40
2023-02-14T13:09:35.723Z,10.13
2023-02-14T13:11:49.283Z,8.10
2023-02-14T13:14:04.309Z,7.73
2023-02-14T13:16:17.283Z,8.80
2023-02-14T13:18:29.760Z,8.97
2023-02-14T13:20:48.023Z,7.77
2023-02-14T13:22:50.699Z,9.30
2023-02-14T13:24:59.750Z,7.80
2023-02-14T13:27:06.662Z,8.00
2023-02-14T13:29:15.038Z,9.40
2023-02-14T13:31:19.178Z,8.83
2023-02-14T13:33:34.740Z,7.60
2023-02-14T13:35:38.996Z,8.17
2023-02-14T13:37:47.677Z,10.30
2023-02-14T13:39:55.506Z,7.47
2023-02-14T13:41:58.558Z,8.60
2023-02-14T13:44:02.626Z,7.60
2023-02-14T13:46:06.643Z,7.93
2023-02-14T13:48:12.904Z,8.33
2023-02-14T13:50:22.119Z,6.67
2023-02-14T13:52:40.968Z,8.07
2023-02-14T13:54:46.739Z,7.83
2023-02-14T13:56:50.967Z,6.77
2023-02-14T13:58:55.844Z,6.47
2023-02-14T14:00:59.073Z,8.60
2023-02-14T14:03:01.834Z,6.53
2023-02-14T14:05:53.863Z,5.90
2023-02-14T14:08:19.282Z,5.53
2023-02-14T14:10:44.675Z,5.37
2023-02-14T14:12:51.977Z,4.70
2023-02-14T14:15:15.967Z,3.60
2023-02-14T14:17:26.109Z,5.23
2023-02-14T14:19:40.714Z,3.70
2023-02-14T14:21:45.353Z,6.60
2023-02-14T14:24:22.312Z,4.00
2023-02-14T14:26:36.586Z,3.10
2023-02-14T14:28:40.732Z,5.60
2023-02-14T14:30:45.038Z,5.57
2023-02-14T14:32:47.864Z,6.90
2023-02-14T14:34:52.511Z,4.80
2023-02-14T14:37:06.700Z,4.80
2023-02-14T14:39:11.168Z,5.13
2023-02-14T14:41:14.032Z,5.50
2023-02-14T14:43:21.650Z,7.67
2023-02-14T14:45:28.806Z,6.00
2023-02-14T14:47:38.983Z,6.77
2023-02-14T14:49:41.778Z,6.13
2023-02-14T14:51:44.524Z,6.17
2023-02-14T14:53:49.711Z,4.17
2023-02-14T14:55:53.227Z,5.80
2023-02-14T14:57:57.599Z,6.57
2023-02-14T15:00:22.665Z,4.90
2023-02-14T15:02:29.951Z,5.70
2023-02-14T15:04:35.069Z,9.33
2023-02-14T15:06:40.893Z,7.40
2023-02-14T15:08:43.934Z,5.33
2023-02-14T15:10:50.840Z,4.30
2023-02-14T15:13:13.579Z,4.43
2023-02-14T15:15:18.851Z,3.20
2023-02-14T15:17:23.362Z,3.23
2023-02-14T15:19:34.365Z,8.47
2023-02-14T15:21:37.487Z,5.50
2023-02-14T15:23:43.954Z,7.07
2023-02-14T15:25:48.008Z,7.70
2023-02-14T15:27:52.192Z,7.97
2023-02-14T15:29:57.344Z,5.23
2023-02-14T15:32:03.381Z,7.20
2023-02-14T15:34:07.144Z,4.80
2023-02-14T15:36:20.340Z,5.80
2023-02-14T15:38:24.686Z,5.83
2023-02-14T15:40:31.055Z,5.27
2023-02-14T15:42:41.216Z,4.77
2023-02-14T15:44:44.487Z,5.37
2023-02-14T15:46:47.988Z,5.30
2023-02-14T15:48:52.378Z,5.70
2023-02-14T15:50:58.900Z,4.27
2023-02-14T15:53:06.877Z,5.43
2023-02-14T15:55:10.597Z,6.23
2023-02-14T15:57:22.583Z,5.60
2023-02-14T15:59:29.673Z,8.33
2023-02-14T16:01:34.950Z,6.43
2023-02-14T16:03:43.632Z,9.60
2023-02-14T16:05:48.022Z,7.33
2023-02-14T16:08:04.458Z,6.13
2023-02-14T16:10:25.934Z,7.13
2023-02-14T16:12:37.894Z,5.93
2023-02-14T16:14:46.557Z,6.37
2023-02-14T16:17:00.642Z,6.63
2023-02-14T16:19:04.613Z,7.20
2023-02-14T16:21:13.700Z,5.77
2023-02-14T16:23:24.665Z,5.43
2023-02-14T16:25:27.335Z,6.50
2023-02-14T16:27:30.074Z,6.83
2023-02-14T16:29:32.796Z,7.77
2023-02-14T16:31:36.781Z,7.10
2023-02-14T16:33:41.251Z,12.33
2023-02-14T16:35:44.055Z,7.47
2023-02-14T16:37:48.365Z,8.27
2023-02-14T16:39:54.763Z,6.53
2023-02-14T16:41:58.058Z,16.90
2023-02-14T16:44:01.605Z,10.47
2023-02-14T16:46:04.373Z,8.07
2023-02-14T16:48:07.306Z,7.80
2023-02-14T16:50:10.603Z,8.90
2023-02-14T16:52:16.838Z,9.93
2023-02-14T16:54:22.077Z,15.10
2023-02-14T16:56:33.970Z,11.33
2023-02-14T16:58:37.808Z,19.73
2023-02-14T17:00:40.590Z,10.27
2023-02-14T17:02:44.325Z,14.37
2023-02-14T17:04:47.581Z,17.17
2023-02-14T17:06:54.150Z,14.57
2023-02-14T17:08:58.817Z,14.57
2023-02-14T17:11:02.559Z,20.80
2023-02-14T17:13:07.711Z,13.60
2023-02-14T17:15:14.268Z,12.90
2023-02-14T17:17:17.419Z,10.57
2023-02-14T17:19:20.194Z,11.50
2023-02-14T17:21:24.104Z,11.33
2023-02-14T17:23:26.945Z,9.47
2023-02-14T17:25:30.114Z,14.83
2023-02-14T17:27:32.913Z,11.33
2023-02-14T17:29:37.214Z,22.20
2023-02-14T17:31:40.108Z,15.00
2023-02-14T17:33:43.093Z,22.00
2023-02-14T17:35:45.843Z,20.27
2023-02-14T17:37:48.846Z,16.63
2023-02-14T17:39:53.650Z,14.00
2023-02-14T17:41:56.616Z,12.63
2023-02-14T17:44:00.636Z,10.27
2023-02-14T17:46:06.867Z,11.03
2023-02-14T17:48:11.652Z,10.23
2023-02-14T17:50:15.919Z,10.00
2023-02-14T17:52:19.236Z,8.93
2023-02-14T17:54:21.994Z,10.00
2023-02-14T17:56:26.548Z,12.07
2023-02-14T17:58:29.300Z,9.70
2023-02-14T18:00:32.032Z,9.50
2023-02-14T18:02:36.230Z,10.17
2023-02-14T18:04:39.169Z,8.47
2023-02-14T18:06:42.836Z,9.00
2023-02-14T18:08:49.292Z,9.70
2023-02-14T18:10:52.004Z,9.17
2023-02-14T18:12:54.854Z,10.00
2023-02-14T18:14:57.644Z,11.33
2023-02-14T18:17:00.686Z,10.57
2023-02-14T18:19:05.367Z,10.60
2023-02-14T18:21:09.809Z,10.77
2023-02-14T18:23:12.660Z,11.07
2023-02-14T18:25:15.601Z,12.23
2023-02-14T18:27:18.613Z,10.50
2023-02-14T18:29:21.317Z,11.53
2023-02-14T18:31:24.153Z,9.63
2023-02-14T18:33:26.961Z,10.30
2023-02-14T18:35:31.000Z,14.63
2023-02-14T18:37:36.669Z,16.23
2023-02-14T18:39:39.565Z,19.73
2023-02-14T18:41:42.339Z,22.47
2023-02-14T18:43:45.421Z,22.57
2023-02-14T18:45:48.227Z,24.63
2023-02-14T18:47:51.098Z,22.50
2023-02-14T18:49:53.909Z,17.43
2023-02-14T18:51:58.787Z,17.53
2023-02-14T18:54:04.439Z,17.13
2023-02-14T18:56:09.744Z,17.13
2023-02-14T18:58:12.448Z,16.40
2023-02-14T19:00:16.126Z,15.20
2023-02-14T19:02:18.918Z,13.87
2023-02-14T19:04:21.730Z,14.33
2023-02-14T19:06:24.720Z,16.00
2023-02-14T19:08:31.299Z,14.33
2023-02-14T19:10:34.004Z,13.87
2023-02-14T19:12:36.828Z,14.30
2023-02-14T19:14:39.589Z,13.27
2023-02-14T19:16:50.104Z,15.97
2023-02-14T19:18:54.048Z,13.83
2023-02-14T19:20:56.724Z,14.97
2023-02-14T19:22:59.426Z,20.00
2023-02-14T19:25:03.541Z,21.43
2023-02-14T19:27:06.442Z,20.40
2023-02-14T19:29:10.929Z,20.23
2023-02-14T19:31:13.856Z,22.27
2023-02-14T19:33:16.588Z,25.60
2023-02-14T19:35:19.429Z,23.93
2023-02-14T19:37:22.153Z,20.30
2023-02-14T19:39:25.320Z,22.77
2023-02-14T19:41:31.637Z,23.00
2023-02-14T19:43:34.418Z,21.90
2023-02-14T19:45:39.598Z,26.33
2023-02-14T19:47:46.992Z,26.83
2023-02-14T19:49:50.174Z,25.47
2023-02-14T19:51:52.955Z,27.63
2023-02-14T19:53:56.487Z,29.47
2023-02-14T19:55:59.217Z,29.33
2023-02-14T19:58:03.345Z,34.23
2023-02-14T20:00:09.021Z,26.40
2023-02-14T20:02:15.087Z,44.23
2023-02-14T20:04:19.636Z,54.17
2023-02-14T20:06:23.584Z,53.70
2023-02-14T20:08:26.378Z,48.53
2023-02-14T20:10:30.773Z,41.43
2023-02-14T20:12:33.453Z,25.23
2023-02-14T20:14:50.251Z,24.17
2023-02-14T20:16:55.734Z,23.37
2023-02-14T20:18:58.960Z,28.60
2023-02-14T20:21:04.368Z,28.93
2023-02-14T20:23:07.073Z,38.07
2023-02-14T20:25:10.234Z,42.27
2023-02-14T20:27:13.001Z,40.87
2023-02-14T20:29:16.945Z,29.20
2023-02-14T20:31:21.459Z,29.70
2023-02-14T20:33:24.242Z,33.23
2023-02-14T20:35:27.567Z,35.93
2023-02-14T20:37:41.096Z,47.70
2023-02-14T20:39:43.940Z,46.23
2023-02-14T20:41:49.837Z,45.43
2023-02-14T20:43:53.144Z,44.57
2023-02-14T20:45:59.499Z,44.27
2023-02-14T20:48:06.784Z,43.97
2023-02-14T20:50:11.803Z,49.17
2023-02-14T20:52:14.519Z,50.43
2023-02-14T20:54:18.134Z,60.60
2023-02-14T20:56:22.789Z,65.67
2023-02-14T20:58:25.518Z,57.53
2023-02-14T21:00:28.338Z,66.90
2023-02-14T21:02:32.627Z,73.63
2023-02-14T21:04:36.680Z,71.23
2023-02-14T21:06:40.186Z,71.23
2023-02-14T21:08:44.088Z,57.23
2023-02-14T21:10:46.815Z,57.77
2023-02-14T21:12:52.613Z,43.37
2023-02-14T21:14:55.312Z,39.03
2023-02-14T21:16:57.996Z,44.13
2023-02-14T21:19:01.478Z,39.57
2023-02-14T21:21:07.167Z,39.73
2023-02-14T21:23:09.939Z,41.27
2023-02-14T21:25:12.760Z,40.30
2023-02-14T21:27:15.498Z,31.70
2023-02-14T21:29:18.398Z,31.57
2023-02-14T21:31:21.889Z,28.03
2023-02-14T21:33:25.343Z,29.90
2023-02-14T21:35:28.211Z,31.00
2023-02-14T21:37:32.990Z,34.80
2023-02-14T21:39:37.868Z,36.17
2023-02-14T21:41:49.102Z,32.30
2023-02-14T21:43:56.267Z,37.40
2023-02-14T21:46:02.031Z,38.47
2023-02-14T21:48:22.646Z,32.23
2023-02-14T21:50:31.491Z,33.87
2023-02-14T21:52:35.578Z,35.77
2023-02-14T21:54:38.302Z,36.43
2023-02-14T21:56:41.842Z,33.37
2023-02-14T21:58:45.042Z,35.90
2023-02-14T22:00:48.102Z,33.07
2023-02-14T22:02:50.855Z,31.83
2023-02-14T22:04:53.611Z,30.80
2023-02-14T22:06:57.055Z,32.20
2023-02-14T22:09:01.097Z,33.07
2023-02-14T22:11:06.071Z,29.60
2023-02-14T22:13:08.963Z,22.70
2023-02-14T22:15:11.761Z,23.93
2023-02-14T22:17:14.456Z,27.20
2023-02-14T22:19:17.693Z,25.37
2023-02-14T22:21:23.092Z,28.10
2023-02-14T22:23:28.847Z,23.30
2023-02-14T22:25:33.060Z,27.13
2023-02-14T22:27:39.504Z,22.77
2023-02-14T22:29:42.290Z,21.87
2023-02-14T22:31:45.393Z,20.33
2023-02-14T22:33:49.262Z,20.83
2023-02-14T22:35:55.688Z,28.50
2023-02-14T22:37:58.477Z,25.20
2023-02-14T22:40:01.323Z,26.57
2023-02-14T22:42:06.838Z,25.30
2023-02-14T22:44:10.308Z,30.00
2023-02-14T22:46:14.838Z,25.80
2023-02-14T22:48:18.692Z,21.30
2023-02-14T22:50:21.422Z,22.23
2023-02-14T22:52:24.184Z,17.43
2023-02-14T22:54:27.036Z,16.73
2023-02-14T22:56:31.886Z,16.37
2023-02-14T22:58:35.974Z,17.13
2023-02-14T23:00:38.763Z,20.93
2023-02-14T23:02:41.509Z,20.47
2023-02-14T23:04:44.265Z,12.63
2023-02-14T23:06:47.009Z,17.00
2023-02-14T23:08:49.754Z,17.73
2023-02-14T23:10:52.884Z,18.40
2023-02-14T23:13:13.383Z,18.03
2023-02-14T23:15:35.420Z,15.47
2023-02-14T23:17:55.586Z,15.60
2023-02-14T23:20:16.064Z,14.40
2023-02-14T23:22:20.829Z,11.37
2023-02-14T23:24:24.356Z,10.00
2023-02-14T23:26:27.228Z,12.63
2023-02-14T23:28:29.961Z,12.20
2023-02-14T23:30:34.105Z,10.70
2023-02-14T23:32:37.075Z,11.70
2023-02-14T23:34:41.903Z,8.67
2023-02-14T23:36:44.732Z,11.37
2023-02-14T23:38:47.546Z,9.67
2023-02-14T23:41:07.812Z,9.23
2023-02-14T23:43:10.523Z,7.40
2023-02-14T23:45:30.861Z,10.90
2023-02-14T23:47:34.981Z,10.10
2023-02-14T23:49:39.641Z,8.57
2023-02-14T23:51:43.064Z,7.67
2023-02-14T23:53:45.772Z,8.73
2023-02-14T23:55:48.637Z,10.93
2023-02-14T23:57:51.402Z,9.67
2023-02-14T23:59:54.115Z,10.17
